Arcadia, Ohio
Current Conditions -  °F | °C
As of 12:49 PM on Thursday 23 Oct 2014 (Local Time) from KFDY Reporting Station
Haze Haze  
Wind Chill: 44°   Ceiling: 400
Heat Index: 46°   Visibility: 6mi
Dew Point: 43°   Wind: 5mph
Humidity: 87%   Direction: 260°W
Pressure: 30.24"   Gusts: NA
Location:  41.11°N, 83.52°W
Report Text: KFDY 231649Z AUTO 26004KT 6SM BR OVC004 08/06 A3024 RMK AO2 CIG 002V005
Loading
Personal Weather Stations






























Interactive Weather Map New forecast layout! Learn more

10-Day Weather Forecast

Advertisements
Track Severe Weather on mobile